Time;durP1;ratioP1;P1;durP2;ratioP2;P2;SDS_P1;SDS_P2;PMS_P1;PMS_P2;Temp;Humidity;BMP_temperature;BMP_pressure;BME280_temperature;BME280_humidity;BME280_pressure;Samples;Min_cycle;Max_cycle;Signal;HPM_P1;HPM_P2
2022/06/18 00:01:33;;;;;;;7.50;6.70;;;;;;;;;;5033369;28;20387;-69
2022/06/18 00:04:03;;;;;;;8.00;7.10;;;;;;;;;;5033651;28;20029;-69
2022/06/18 00:06:29;;;;;;;12.57;7.45;;;;;;;;;;5033434;28;20029;-69
2022/06/18 00:08:55;;;;;;;7.85;7.15;;;;;;;;;;5033369;28;20021;-68
2022/06/18 00:14:04;;;;;;;7.35;6.63;;;;;;;;;;5033557;28;20086;-69
2022/06/18 00:16:31;;;;;;;7.57;6.88;;;;;;;;;;5033154;28;20414;-67
2022/06/18 00:18:57;;;;;;;6.72;6.13;;;;;;;;;;5033768;28;20041;-69
2022/06/18 00:21:23;;;;;;;6.80;6.20;;;;;;;;;;5033491;28;20033;-69
2022/06/18 00:23:49;;;;;;;6.82;6.13;;;;;;;;;;5033031;28;20028;-68
2022/06/18 00:26:15;;;;;;;6.72;6.13;;;;;;;;;;5033457;28;20021;-68
2022/06/18 00:28:40;;;;;;;6.45;5.85;;;;;;;;;;5033138;28;20028;-69
2022/06/18 00:31:05;;;;;;;8.90;6.80;;;;;;;;;;5032956;28;20029;-67
2022/06/18 00:33:31;;;;;;;6.72;6.03;;;;;;;;;;5033119;28;20030;-69
2022/06/18 00:35:59;;;;;;;7.07;6.35;;;;;;;;;;5033360;28;20048;-69
2022/06/18 00:38:28;;;;;;;6.60;6.00;;;;;;;;;;5033268;28;20029;-68
2022/06/18 00:40:54;;;;;;;6.50;5.90;;;;;;;;;;5033367;28;20058;-68
2022/06/18 00:43:19;;;;;;;6.32;5.72;;;;;;;;;;5033253;28;20022;-67
2022/06/18 00:45:45;;;;;;;6.65;6.05;;;;;;;;;;5032927;28;20079;-67
2022/06/18 00:48:18;;;;;;;6.00;5.43;;;;;;;;;;5032970;28;20444;-67
2022/06/18 00:50:47;;;;;;;6.82;5.97;;;;;;;;;;5033038;28;20113;-67
2022/06/18 00:53:35;;;;;;;7.20;6.47;;;;;;;;;;5033235;28;20018;-68
2022/06/18 00:56:00;;;;;;;7.68;6.07;;;;;;;;;;5032826;28;20033;-67
2022/06/18 00:58:52;;;;;;;5.50;5.10;;;;;;;;;;5032624;28;20037;-69
2022/06/18 01:01:21;;;;;;;5.47;4.97;;;;;;;;;;5028834;28;20111;-68
2022/06/18 01:03:47;;;;;;;6.75;6.00;;;;;;;;;;5035830;28;20099;-67
2022/06/18 01:06:15;;;;;;;6.38;5.65;;;;;;;;;;5036906;28;20025;-67
2022/06/18 01:08:41;;;;;;;6.75;6.15;;;;;;;;;;5036928;28;20029;-69
2022/06/18 01:11:09;;;;;;;7.60;6.28;;;;;;;;;;5036948;28;20026;-69
2022/06/18 01:13:36;;;;;;;7.07;6.28;;;;;;;;;;5036962;28;20136;-67
2022/06/18 01:16:03;;;;;;;6.80;6.20;;;;;;;;;;5036580;28;20447;-68
2022/06/18 01:18:29;;;;;;;6.80;5.93;;;;;;;;;;5036415;28;20040;-68
2022/06/18 01:20:59;;;;;;;9.00;6.53;;;;;;;;;;5036256;28;20021;-67
2022/06/18 01:23:31;;;;;;;6.40;5.80;;;;;;;;;;5036717;28;20099;-69
2022/06/18 01:25:56;;;;;;;5.95;5.40;;;;;;;;;;5036501;28;20022;-68
2022/06/18 01:28:22;;;;;;;5.65;5.18;;;;;;;;;;5036697;28;20349;-69
2022/06/18 01:30:47;;;;;;;5.22;4.72;;;;;;;;;;5036528;28;20057;-68
2022/06/18 01:33:13;;;;;;;6.53;5.05;;;;;;;;;;5036353;28;20030;-68
2022/06/18 01:35:41;;;;;;;6.25;5.68;;;;;;;;;;5036387;28;20022;-68
2022/06/18 01:38:08;;;;;;;5.95;5.40;;;;;;;;;;5035723;28;20033;-68
2022/06/18 01:40:47;;;;;;;5.97;5.47;;;;;;;;;;5036307;28;20053;-69
2022/06/18 01:43:13;;;;;;;;;;;;;;;;;;5036801;28;20112;-68
2022/06/18 01:45:39;;;;;;;6.17;5.57;;;;;;;;;;5036029;28;20050;-69
2022/06/18 01:48:16;;;;;;;5.90;5.30;;;;;;;;;;5035874;28;20095;-69
2022/06/18 01:50:54;;;;;;;8.43;5.47;;;;;;;;;;5036187;28;20026;-69
2022/06/18 01:53:25;;;;;;;6.20;5.47;;;;;;;;;;5035179;28;20352;-69
2022/06/18 01:55:53;;;;;;;6.60;4.60;;;;;;;;;;5035724;28;20029;-68
2022/06/18 01:58:21;;;;;;;6.95;5.97;;;;;;;;;;5035807;28;20128;-70
2022/06/18 02:00:51;;;;;;;6.35;5.75;;;;;;;;;;5035830;28;20025;-68
2022/06/18 02:03:16;;;;;;;5.95;5.35;;;;;;;;;;5036237;28;20025;-68
2022/06/18 02:05:42;;;;;;;5.32;4.85;;;;;;;;;;5035922;28;20021;-69
2022/06/18 02:08:08;;;;;;;6.05;5.22;;;;;;;;;;5035359;28;20040;-69
2022/06/18 02:10:43;;;;;;;5.30;4.88;;;;;;;;;;5035550;28;20471;-69
2022/06/18 02:13:09;;;;;;;8.00;5.57;;;;;;;;;;5034731;28;20433;-70
2022/06/18 02:15:37;;;;;;;6.85;5.43;;;;;;;;;;5034448;28;20110;-69
2022/06/18 02:18:05;;;;;;;5.72;5.22;;;;;;;;;;5035543;28;20030;-69
2022/06/18 02:20:33;;;;;;;7.18;6.03;;;;;;;;;;5035914;28;20095;-70
2022/06/18 02:22:58;;;;;;;5.38;4.95;;;;;;;;;;5035422;28;20035;-68
2022/06/18 02:25:25;;;;;;;6.00;5.50;;;;;;;;;;5036112;28;20509;-70
2022/06/18 02:27:54;;;;;;;6.22;5.63;;;;;;;;;;5035207;28;20022;-70
2022/06/18 02:30:21;;;;;;;5.47;4.97;;;;;;;;;;5035104;28;20076;-68
2022/06/18 02:32:54;;;;;;;5.25;4.75;;;;;;;;;;5035632;28;20436;-68
2022/06/18 02:35:19;;;;;;;5.03;4.63;;;;;;;;;;5035436;28;20017;-68
2022/06/18 02:37:45;;;;;;;6.60;5.35;;;;;;;;;;5034973;28;20021;-69
2022/06/18 02:40:15;;;;;;;5.72;5.10;;;;;;;;;;5035211;28;20128;-67
2022/06/18 02:42:40;;;;;;;6.45;5.38;;;;;;;;;;5034791;28;20437;-67
2022/06/18 02:45:06;;;;;;;6.35;5.53;;;;;;;;;;5034236;28;20026;-68
2022/06/18 02:47:31;;;;;;;6.70;5.55;;;;;;;;;;5034907;28;20428;-68
2022/06/18 02:49:58;;;;;;;5.07;4.63;;;;;;;;;;5034831;28;20017;-69
2022/06/18 02:52:28;;;;;;;6.63;4.90;;;;;;;;;;5035036;28;20060;-68
2022/06/18 02:55:00;;;;;;;5.13;4.72;;;;;;;;;;5034704;28;20495;-69
2022/06/18 02:57:27;;;;;;;6.07;5.15;;;;;;;;;;5035098;28;20094;-70
2022/06/18 02:59:53;;;;;;;6.00;5.40;;;;;;;;;;5034063;28;20037;-69
2022/06/18 03:02:18;;;;;;;6.68;5.15;;;;;;;;;;5034619;28;20029;-68
2022/06/18 03:04:43;;;;;;;5.40;5.00;;;;;;;;;;5034381;28;20021;-69
2022/06/18 03:07:09;;;;;;;9.88;5.43;;;;;;;;;;5034418;28;20025;-69
2022/06/18 03:12:06;;;;;;;7.90;6.38;;;;;;;;;;5034452;28;20112;-71
2022/06/18 03:12:19;;;;;;;6.80;5.45;;;;;;;;;;5034209;28;20025;-68
2022/06/18 03:14:45;;;;;;;6.18;5.35;;;;;;;;;;5033634;28;20037;-68
2022/06/18 03:17:11;;;;;;;6.25;5.25;;;;;;;;;;5034271;28;20096;-70
2022/06/18 03:19:41;;;;;;;5.45;4.95;;;;;;;;;;5034298;28;20452;-68
2022/06/18 03:22:09;;;;;;;5.63;5.10;;;;;;;;;;5034108;28;20458;-67
2022/06/18 03:24:34;;;;;;;5.80;5.20;;;;;;;;;;5034218;28;20029;-70
2022/06/18 03:27:00;;;;;;;6.22;5.63;;;;;;;;;;5034018;28;20037;-68
2022/06/18 03:29:25;;;;;;;6.10;5.28;;;;;;;;;;5034052;28;20087;-69
2022/06/18 03:31:51;;;;;;;5.72;5.15;;;;;;;;;;5033922;28;20068;-69
2022/06/18 03:34:16;;;;;;;6.00;5.38;;;;;;;;;;5033989;28;20022;-69
2022/06/18 03:36:42;;;;;;;6.45;5.22;;;;;;;;;;5032078;28;20039;-74
2022/06/18 03:39:09;;;;;;;5.70;5.20;;;;;;;;;;5012407;28;20085;-74
2022/06/18 03:41:34;;;;;;;5.18;4.75;;;;;;;;;;5005113;28;20029;-70
2022/06/18 03:43:59;;;;;;;5.78;5.28;;;;;;;;;;5010619;28;20099;-68
2022/06/18 03:46:25;;;;;;;4.93;4.50;;;;;;;;;;5016160;28;20096;-69
2022/06/18 03:48:52;;;;;;;6.60;4.85;;;;;;;;;;5011554;28;20021;-68
2022/06/18 03:51:18;;;;;;;4.90;4.50;;;;;;;;;;5012674;28;20783;-69
2022/06/18 03:53:43;;;;;;;5.50;5.03;;;;;;;;;;5010420;28;20029;-71
2022/06/18 03:56:10;;;;;;;5.78;5.38;;;;;;;;;;5010936;28;20026;-67
2022/06/18 03:58:35;;;;;;;7.68;6.25;;;;;;;;;;5009143;28;20460;-68
2022/06/18 04:01:00;;;;;;;5.68;5.18;;;;;;;;;;5007796;28;20049;-72
2022/06/18 04:03:26;;;;;;;6.75;5.70;;;;;;;;;;5009853;28;20036;-69
2022/06/18 04:05:52;;;;;;;6.50;5.90;;;;;;;;;;5010276;28;20013;-74
2022/06/18 04:08:19;;;;;;;5.88;5.28;;;;;;;;;;5009190;28;20052;-71
2022/06/18 04:10:45;;;;;;;6.28;5.32;;;;;;;;;;5011795;28;20040;-68
2022/06/18 04:13:10;;;;;;;6.03;5.35;;;;;;;;;;5011733;28;20026;-69
2022/06/18 04:15:35;;;;;;;5.57;5.05;;;;;;;;;;5011240;28;20033;-73
2022/06/18 04:18:01;;;;;;;6.40;5.40;;;;;;;;;;5011391;28;20068;-69
2022/06/18 04:20:28;;;;;;;6.35;5.85;;;;;;;;;;5014055;28;20068;-71
2022/06/18 04:22:54;;;;;;;5.25;4.75;;;;;;;;;;5012215;28;20034;-68
2022/06/18 04:25:19;;;;;;;6.00;5.50;;;;;;;;;;5011982;28;20022;-69
2022/06/18 04:27:45;;;;;;;5.85;5.25;;;;;;;;;;5013315;28;20518;-67
2022/06/18 04:30:11;;;;;;;6.32;5.82;;;;;;;;;;5012235;28;20491;-74
2022/06/18 04:32:37;;;;;;;7.15;6.20;;;;;;;;;;4997202;28;20352;-73
2022/06/18 04:35:06;;;;;;;6.55;5.95;;;;;;;;;;5010954;28;20033;-71
2022/06/18 04:37:32;;;;;;;6.30;5.70;;;;;;;;;;5011584;28;20112;-73
2022/06/18 04:39:57;;;;;;;6.72;6.13;;;;;;;;;;5015600;28;20141;-67
2022/06/18 04:42:22;;;;;;;6.30;5.80;;;;;;;;;;5009398;28;20033;-75
2022/06/18 04:44:48;;;;;;;6.50;6.00;;;;;;;;;;5009242;28;20025;-69
2022/06/18 04:47:13;;;;;;;6.93;6.22;;;;;;;;;;5013394;28;20105;-69
2022/06/18 04:49:39;;;;;;;6.45;5.93;;;;;;;;;;5012594;28;20017;-69
2022/06/18 04:52:04;;;;;;;6.03;5.53;;;;;;;;;;5009726;28;20029;-73
2022/06/18 04:54:30;;;;;;;7.07;5.78;;;;;;;;;;5008419;28;20030;-68
2022/06/18 04:56:55;;;;;;;6.72;6.05;;;;;;;;;;5010276;28;20021;-74
2022/06/18 04:59:20;;;;;;;5.63;5.13;;;;;;;;;;5010592;28;20345;-72
2022/06/18 05:01:46;;;;;;;6.57;5.97;;;;;;;;;;5010476;28;20022;-72
2022/06/18 05:04:11;;;;;;;6.45;5.75;;;;;;;;;;5011072;28;20436;-72
2022/06/18 05:06:37;;;;;;;6.45;5.85;;;;;;;;;;5011026;28;20037;-68
2022/06/18 05:09:02;;;;;;;9.93;6.15;;;;;;;;;;5008805;28;20025;-67
2022/06/18 05:11:28;;;;;;;6.25;5.55;;;;;;;;;;5008431;28;20324;-71
2022/06/18 05:13:53;;;;;;;6.63;5.57;;;;;;;;;;5011242;28;20428;-68
2022/06/18 05:16:18;;;;;;;5.40;5.00;;;;;;;;;;5011989;28;20424;-67
2022/06/18 05:18:45;;;;;;;6.13;5.53;;;;;;;;;;5008850;28;20041;-66
2022/06/18 05:21:10;;;;;;;5.70;5.20;;;;;;;;;;5009811;28;20025;-67
2022/06/18 05:23:35;;;;;;;7.68;5.63;;;;;;;;;;5010489;28;20035;-72
2022/06/18 05:26:01;;;;;;;5.90;5.40;;;;;;;;;;5011887;28;20499;-67
2022/06/18 05:28:27;;;;;;;5.38;4.97;;;;;;;;;;5012210;28;20524;-68
2022/06/18 05:30:52;;;;;;;6.00;5.40;;;;;;;;;;5016168;28;20092;-66
2022/06/18 05:33:18;;;;;;;6.22;5.47;;;;;;;;;;5014208;28;20013;-68
2022/06/18 05:35:44;;;;;;;6.57;4.68;;;;;;;;;;5012950;28;20030;-68
2022/06/18 05:38:17;;;;;;;5.35;4.88;;;;;;;;;;5005709;28;20029;-69
2022/06/18 05:40:43;;;;;;;5.32;4.85;;;;;;;;;;5003808;28;23128;-69
2022/06/18 05:43:08;;;;;;;5.68;5.18;;;;;;;;;;5009721;28;20017;-70
2022/06/18 05:45:34;;;;;;;5.50;4.85;;;;;;;;;;5014016;28;20096;-73
2022/06/18 05:47:59;;;;;;;5.65;5.15;;;;;;;;;;5017271;28;20014;-68
2022/06/18 05:50:25;;;;;;;5.55;4.90;;;;;;;;;;5013830;28;20025;-67
2022/06/18 05:52:50;;;;;;;4.97;4.45;;;;;;;;;;5009504;28;20033;-75
2022/06/18 05:55:20;;;;;;;5.13;4.63;;;;;;;;;;5012617;28;20025;-70
2022/06/18 05:57:48;;;;;;;4.88;4.47;;;;;;;;;;5011961;28;20702;-70
2022/06/18 06:00:14;;;;;;;7.05;4.50;;;;;;;;;;5013993;28;20062;-70
2022/06/18 06:02:39;;;;;;;6.05;4.63;;;;;;;;;;5012629;28;20029;-69
2022/06/18 06:05:05;;;;;;;7.93;4.95;;;;;;;;;;5014839;28;20022;-70
2022/06/18 06:07:30;;;;;;;5.63;5.10;;;;;;;;;;5015073;28;20025;-72
2022/06/18 06:12:39;;;;;;;6.97;5.93;;;;;;;;;;5011847;28;20048;-75
2022/06/18 06:15:05;;;;;;;6.03;5.30;;;;;;;;;;5012777;28;20341;-70
2022/06/18 06:17:32;;;;;;;6.60;5.20;;;;;;;;;;5015879;28;20084;-71
2022/06/18 06:20:05;;;;;;;5.72;5.22;;;;;;;;;;5012528;28;20037;-70
2022/06/18 06:22:31;;;;;;;5.15;4.55;;;;;;;;;;5012138;28;20025;-72
2022/06/18 06:24:56;;;;;;;4.32;3.92;;;;;;;;;;5005747;28;20171;-73
2022/06/18 06:27:21;;;;;;;5.07;4.20;;;;;;;;;;5010630;28;20029;-75
2022/06/18 06:29:46;;;;;;;4.05;3.75;;;;;;;;;;5006951;28;20033;-71
2022/06/18 06:32:12;;;;;;;3.95;3.65;;;;;;;;;;5007423;28;20037;-67
2022/06/18 06:34:37;;;;;;;3.58;3.28;;;;;;;;;;5006537;28;20044;-69
2022/06/18 06:37:04;;;;;;;4.05;3.72;;;;;;;;;;5007697;28;20064;-67
2022/06/18 06:39:29;;;;;;;5.43;3.30;;;;;;;;;;5005420;28;20460;-68
2022/06/18 06:41:55;;;;;;;3.83;3.40;;;;;;;;;;5006642;28;20036;-67
2022/06/18 06:44:20;;;;;;;5.28;4.03;;;;;;;;;;5012490;28;20025;-73
2022/06/18 06:46:46;;;;;;;11.85;4.00;;;;;;;;;;5010785;28;20044;-70
2022/06/18 06:49:11;;;;;;;3.85;3.55;;;;;;;;;;5009722;28;20037;-70
2022/06/18 06:51:38;;;;;;;3.38;3.17;;;;;;;;;;5008609;28;20104;-72
2022/06/18 06:54:04;;;;;;;3.92;3.50;;;;;;;;;;5006755;28;20033;-69
2022/06/18 06:59:13;;;;;;;5.35;3.30;;;;;;;;;;5007389;28;20360;-68
2022/06/18 07:01:38;;;;;;;3.92;3.63;;;;;;;;;;5007722;28;20026;-74
2022/06/18 07:04:05;;;;;;;3.63;3.33;;;;;;;;;;5008087;28;20031;-70
2022/06/18 07:06:30;;;;;;;3.90;3.50;;;;;;;;;;5005885;28;20026;-68
2022/06/18 07:08:56;;;;;;;4.80;3.30;;;;;;;;;;5017795;28;20033;-68
2022/06/18 07:11:22;;;;;;;3.63;3.33;;;;;;;;;;5005509;28;20099;-69
2022/06/18 07:13:47;;;;;;;3.60;3.30;;;;;;;;;;5007269;28;20334;-69
2022/06/18 07:16:13;;;;;;;5.03;3.03;;;;;;;;;;5005296;28;20429;-73
2022/06/18 07:18:39;;;;;;;4.93;2.88;;;;;;;;;;5005043;28;20117;-70
2022/06/18 07:21:06;;;;;;;3.10;2.72;;;;;;;;;;5007185;28;20120;-68
2022/06/18 07:23:32;;;;;;;5.45;3.33;;;;;;;;;;5006955;28;20429;-71
2022/06/18 07:25:58;;;;;;;6.13;3.53;;;;;;;;;;5011081;28;20032;-71
2022/06/18 07:28:23;;;;;;;5.18;3.33;;;;;;;;;;5014021;28;20469;-73
2022/06/18 07:30:49;;;;;;;3.50;2.60;;;;;;;;;;5006463;28;21091;-70
2022/06/18 07:33:17;;;;;;;3.88;2.83;;;;;;;;;;5013711;28;20039;-73
2022/06/18 07:35:42;;;;;;;2.88;2.67;;;;;;;;;;5011004;28;20032;-67
2022/06/18 07:38:07;;;;;;;6.72;2.90;;;;;;;;;;5008982;28;20045;-67
2022/06/18 07:40:35;;;;;;;5.55;2.63;;;;;;;;;;5017918;28;20068;-67
2022/06/18 07:43:01;;;;;;;3.15;2.85;;;;;;;;;;5018579;28;20029;-70
2022/06/18 07:45:27;;;;;;;2.90;2.63;;;;;;;;;;5020385;28;20444;-68
2022/06/18 07:47:52;;;;;;;2.67;2.20;;;;;;;;;;5010456;28;20048;-68
2022/06/18 07:50:19;;;;;;;2.78;2.58;;;;;;;;;;5019378;28;20033;-68
2022/06/18 07:52:45;;;;;;;3.85;2.70;;;;;;;;;;5019293;28;20039;-69
2022/06/18 07:55:12;;;;;;;2.83;2.60;;;;;;;;;;5011721;28;20505;-69
2022/06/18 07:57:37;;;;;;;2.60;2.40;;;;;;;;;;5013672;28;20134;-68
2022/06/18 08:00:04;;;;;;;2.15;2.03;;;;;;;;;;5007495;28;20047;-71
2022/06/18 08:02:30;;;;;;;2.97;2.53;;;;;;;;;;5008904;28;20464;-69
2022/06/18 08:04:55;;;;;;;2.70;2.50;;;;;;;;;;5009930;28;20026;-69
2022/06/18 08:07:20;;;;;;;2.40;2.20;;;;;;;;;;5018971;28;20437;-67
2022/06/18 08:09:46;;;;;;;2.65;2.22;;;;;;;;;;5016819;28;20032;-70
2022/06/18 08:12:11;;;;;;;2.95;2.45;;;;;;;;;;5006190;28;20033;-69
2022/06/18 08:14:37;;;;;;;2.40;2.20;;;;;;;;;;5009500;28;20021;-69
2022/06/18 08:17:02;;;;;;;2.63;2.15;;;;;;;;;;5011298;28;20025;-70
2022/06/18 08:19:27;;;;;;;3.72;2.40;;;;;;;;;;5007835;28;20048;-67
2022/06/18 08:21:53;;;;;;;2.55;2.28;;;;;;;;;;5008384;28;20115;-69
2022/06/18 08:24:20;;;;;;;3.45;2.10;;;;;;;;;;5007997;28;20057;-69
2022/06/18 08:26:46;;;;;;;2.00;1.90;;;;;;;;;;5008187;28;20044;-67
2022/06/18 08:29:13;;;;;;;3.50;2.40;;;;;;;;;;5008988;28;20029;-67
2022/06/18 08:31:38;;;;;;;2.60;2.40;;;;;;;;;;5007733;28;20376;-68
2022/06/18 08:34:03;;;;;;;2.05;1.85;;;;;;;;;;5007820;28;20026;-71
2022/06/18 08:36:29;;;;;;;2.15;1.90;;;;;;;;;;5007392;28;20428;-68
2022/06/18 08:38:54;;;;;;;2.30;2.10;;;;;;;;;;5007067;28;23904;-71
2022/06/18 08:41:30;;;;;;;2.95;2.00;;;;;;;;;;5006069;28;20368;-67
2022/06/18 08:43:58;;;;;;;2.67;2.47;;;;;;;;;;5004337;28;20037;-69
2022/06/18 08:46:42;;;;;;;2.97;2.13;;;;;;;;;;5005459;28;20052;-72
2022/06/18 08:49:26;;;;;;;1.92;1.70;;;;;;;;;;5005431;28;20495;-71
2022/06/18 08:52:00;;;;;;;2.13;1.92;;;;;;;;;;5006807;28;20105;-67
2022/06/18 08:54:38;;;;;;;2.13;1.98;;;;;;;;;;5005004;28;20114;-69
2022/06/18 08:57:24;;;;;;;3.70;1.77;;;;;;;;;;5007608;28;20018;-67
2022/06/18 08:59:49;;;;;;;1.52;1.42;;;;;;;;;;5005840;28;20116;-69
2022/06/18 09:02:14;;;;;;;2.28;1.60;;;;;;;;;;5006928;28;20523;-67
2022/06/18 09:04:39;;;;;;;2.05;1.95;;;;;;;;;;5006887;28;20043;-70
2022/06/18 09:07:24;;;;;;;1.75;1.65;;;;;;;;;;5002918;28;20047;-72
2022/06/18 09:09:49;;;;;;;1.70;1.45;;;;;;;;;;5005282;28;20029;-69
2022/06/18 09:12:17;;;;;;;1.98;1.70;;;;;;;;;;5001421;28;20396;-70
2022/06/18 09:14:46;;;;;;;1.80;1.70;;;;;;;;;;5005178;28;20025;-69
2022/06/18 09:17:18;;;;;;;1.70;1.60;;;;;;;;;;5005652;28;20281;-69
2022/06/18 09:19:46;;;;;;;2.50;2.30;;;;;;;;;;5005150;28;20376;-69
2022/06/18 09:22:18;;;;;;;2.30;2.10;;;;;;;;;;5003877;28;20076;-70
2022/06/18 09:24:45;;;;;;;2.78;1.75;;;;;;;;;;5006963;28;20030;-72
2022/06/18 09:27:15;;;;;;;2.10;1.90;;;;;;;;;;5007556;28;20962;-69
2022/06/18 09:29:54;;;;;;;1.70;1.60;;;;;;;;;;5010380;28;20034;-69
2022/06/18 09:32:40;;;;;;;2.85;1.90;;;;;;;;;;5009030;28;20033;-68
2022/06/18 09:35:15;;;;;;;2.30;2.10;;;;;;;;;;5003692;28;20044;-71
2022/06/18 09:37:44;;;;;;;2.53;1.77;;;;;;;;;;5010901;28;20056;-69
2022/06/18 09:40:13;;;;;;;2.25;2.05;;;;;;;;;;5008930;28;20111;-70
2022/06/18 09:42:56;;;;;;;2.30;2.10;;;;;;;;;;5009819;28;20018;-70
2022/06/18 09:45:24;;;;;;;5.03;2.38;;;;;;;;;;5009787;28;21113;-70
2022/06/18 09:47:49;;;;;;;2.00;1.80;;;;;;;;;;5008051;28;20148;-73
2022/06/18 09:50:17;;;;;;;2.58;2.30;;;;;;;;;;5008297;28;20396;-73
2022/06/18 09:52:44;;;;;;;2.40;2.20;;;;;;;;;;5008838;28;20028;-70
2022/06/18 09:55:14;;;;;;;2.40;1.77;;;;;;;;;;5007459;28;20052;-70
2022/06/18 09:57:41;;;;;;;2.10;1.90;;;;;;;;;;5009247;28;20021;-69
2022/06/18 10:00:07;;;;;;;2.47;2.25;;;;;;;;;;5006639;28;20044;-73
2022/06/18 10:02:34;;;;;;;2.95;2.38;;;;;;;;;;5007462;28;20379;-70
2022/06/18 10:07:47;;;;;;;2.47;2.28;;;;;;;;;;5008216;28;20199;-70
2022/06/18 10:10:14;;;;;;;2.35;2.03;;;;;;;;;;5009268;28;20033;-72
2022/06/18 10:12:42;;;;;;;2.38;2.17;;;;;;;;;;5007759;28;20021;-70
2022/06/18 10:15:09;;;;;;;2.40;2.20;;;;;;;;;;5006375;28;20056;-73
2022/06/18 10:17:40;;;;;;;3.25;2.80;;;;;;;;;;5007503;28;20040;-71
2022/06/18 10:20:15;;;;;;;2.35;2.15;;;;;;;;;;5006900;28;20337;-73
2022/06/18 10:22:59;;;;;;;4.90;2.50;;;;;;;;;;5008417;28;20111;-74
2022/06/18 10:25:31;;;;;;;2.60;2.40;;;;;;;;;;5006825;28;20049;-70
2022/06/18 10:28:03;;;;;;;2.65;2.45;;;;;;;;;;5008732;28;20026;-70
2022/06/18 10:30:45;;;;;;;2.65;2.45;;;;;;;;;;5008250;28;20049;-72
2022/06/18 10:33:10;;;;;;;2.83;2.00;;;;;;;;;;5008363;28;20021;-71
2022/06/18 10:35:38;;;;;;;2.72;2.38;;;;;;;;;;5007996;28;20880;-74
2022/06/18 10:38:23;;;;;;;2.60;2.40;;;;;;;;;;5003562;28;20459;-69
2022/06/18 10:41:00;;;;;;;4.47;2.30;;;;;;;;;;5007564;28;20076;-69
2022/06/18 10:43:44;;;;;;;3.35;2.78;;;;;;;;;;5016710;28;20385;-71
2022/06/18 10:46:12;;;;;;;2.08;1.98;;;;;;;;;;5015327;28;20029;-71
2022/06/18 10:48:43;;;;;;;2.58;2.38;;;;;;;;;;5016294;28;20044;-71
2022/06/18 10:51:14;;;;;;;1.75;1.65;;;;;;;;;;5007403;28;20368;-70
2022/06/18 10:53:47;;;;;;;2.05;1.88;;;;;;;;;;5005541;28;20034;-71
2022/06/18 10:56:14;;;;;;;2.72;2.53;;;;;;;;;;5006106;28;20025;-72
2022/06/18 10:58:50;;;;;;;3.00;2.10;;;;;;;;;;5006491;28;20401;-71
2022/06/18 11:01:16;;;;;;;2.30;2.10;;;;;;;;;;5020910;28;20387;-71
2022/06/18 11:03:52;;;;;;;2.47;2.28;;;;;;;;;;5005663;28;20025;-74
2022/06/18 11:06:17;;;;;;;3.47;2.33;;;;;;;;;;5007954;28;20033;-71
2022/06/18 11:08:54;;;;;;;6.05;2.28;;;;;;;;;;5007356;28;20029;-74
2022/06/18 11:11:27;;;;;;;2.80;2.22;;;;;;;;;;5005647;28;20029;-70
2022/06/18 11:13:53;;;;;;;3.17;2.55;;;;;;;;;;5004645;28;20040;-69
2022/06/18 11:16:25;;;;;;;2.40;2.20;;;;;;;;;;5008095;28;20025;-69
2022/06/18 11:18:58;;;;;;;2.65;2.38;;;;;;;;;;5014193;28;20037;-70
2022/06/18 11:21:43;;;;;;;5.22;2.60;;;;;;;;;;5007116;28;20114;-70
2022/06/18 11:24:12;;;;;;;2.95;2.65;;;;;;;;;;5007738;28;20036;-70
2022/06/18 11:26:42;;;;;;;1.80;1.70;;;;;;;;;;5014755;28;20025;-71
2022/06/18 11:29:12;;;;;;;1.83;1.73;;;;;;;;;;5014921;28;20128;-73
2022/06/18 11:31:43;;;;;;;2.03;1.92;;;;;;;;;;5014394;28;20399;-70
2022/06/18 11:34:35;;;;;;;4.32;1.55;;;;;;;;;;5014964;28;20025;-70
2022/06/18 11:37:10;;;;;;;3.53;2.25;;;;;;;;;;5013176;28;20048;-70
2022/06/18 11:39:39;;;;;;;2.45;2.25;;;;;;;;;;5018364;28;20060;-71
2022/06/18 11:42:09;;;;;;;2.05;1.80;;;;;;;;;;5015719;28;20112;-71
2022/06/18 11:44:40;;;;;;;3.00;2.70;;;;;;;;;;5013310;28;20045;-73
2022/06/18 11:47:09;;;;;;;4.15;2.78;;;;;;;;;;5014777;28;20025;-74
2022/06/18 11:49:42;;;;;;;2.65;2.45;;;;;;;;;;5014249;28;20064;-71
2022/06/18 11:52:27;;;;;;;3.20;2.50;;;;;;;;;;5013687;28;20036;-71
2022/06/18 11:54:52;;;;;;;3.25;2.45;;;;;;;;;;5015483;28;20040;-71
2022/06/18 11:57:25;;;;;;;2.40;2.20;;;;;;;;;;5017414;28;20033;-70
2022/06/18 11:59:56;;;;;;;2.35;2.17;;;;;;;;;;5016618;28;20040;-71
2022/06/18 12:02:28;;;;;;;2.50;2.30;;;;;;;;;;5012640;28;20037;-71
2022/06/18 12:05:05;;;;;;;3.20;2.40;;;;;;;;;;5014978;28;20029;-71
2022/06/18 12:07:36;;;;;;;2.17;2.08;;;;;;;;;;5013924;28;20029;-71
2022/06/18 12:10:03;;;;;;;2.58;2.38;;;;;;;;;;5014852;28;20025;-73
2022/06/18 12:12:40;;;;;;;2.40;2.20;;;;;;;;;;5011359;28;20030;-72
2022/06/18 12:15:24;;;;;;;2.13;2.03;;;;;;;;;;5015989;28;20086;-71
2022/06/18 12:18:01;;;;;;;2.10;2.00;;;;;;;;;;5014392;28;20034;-71
2022/06/18 12:20:27;;;;;;;2.15;1.83;;;;;;;;;;5012755;28;20045;-70
2022/06/18 12:22:58;;;;;;;2.00;1.90;;;;;;;;;;5015437;28;20087;-72
2022/06/18 12:25:32;;;;;;;3.42;2.60;;;;;;;;;;5011175;28;20100;-72
2022/06/18 12:28:01;;;;;;;2.47;1.98;;;;;;;;;;5010916;28;20034;-73
2022/06/18 12:30:32;;;;;;;2.40;2.20;;;;;;;;;;5015716;28;20121;-73
2022/06/18 12:32:57;;;;;;;2.20;2.00;;;;;;;;;;5014068;28;20033;-72
2022/06/18 12:35:37;;;;;;;2.17;1.80;;;;;;;;;;5011561;28;20029;-72
2022/06/18 12:38:14;;;;;;;2.10;2.00;;;;;;;;;;5010320;28;20065;-71
2022/06/18 12:40:45;;;;;;;2.90;2.03;;;;;;;;;;5014679;28;20050;-71
2022/06/18 12:43:16;;;;;;;3.83;2.10;;;;;;;;;;5014983;28;20025;-70
2022/06/18 12:45:45;;;;;;;2.40;2.20;;;;;;;;;;5017993;28;20351;-74
2022/06/18 12:48:10;;;;;;;2.47;2.15;;;;;;;;;;5016791;28;20018;-71
2022/06/18 12:50:35;;;;;;;3.72;2.17;;;;;;;;;;5016859;28;20059;-69
2022/06/18 12:53:20;;;;;;;3.08;2.30;;;;;;;;;;5015394;28;23075;-71
2022/06/18 12:55:54;;;;;;;2.53;2.33;;;;;;;;;;5018664;28;20029;-73
2022/06/18 12:58:34;;;;;;;3.42;2.10;;;;;;;;;;5018169;28;20044;-71
2022/06/18 13:01:02;;;;;;;2.42;2.22;;;;;;;;;;5018851;28;20349;-71
2022/06/18 13:03:47;;;;;;;3.53;1.90;;;;;;;;;;5019189;28;20047;-71
2022/06/18 13:06:15;;;;;;;2.10;2.00;;;;;;;;;;5011264;28;20117;-70
2022/06/18 13:08:59;;;;;;;2.10;2.00;;;;;;;;;;5015755;28;20033;-70
2022/06/18 13:11:36;;;;;;;4.65;2.33;;;;;;;;;;5019965;28;20061;-72
2022/06/18 13:14:17;;;;;;;2.10;2.00;;;;;;;;;;5010228;28;20040;-69
2022/06/18 13:16:46;;;;;;;1.85;1.75;;;;;;;;;;5008607;28;20033;-69
2022/06/18 13:19:11;;;;;;;1.90;1.80;;;;;;;;;;5007991;28;20076;-71
2022/06/18 13:21:37;;;;;;;2.28;2.00;;;;;;;;;;5007630;28;20092;-70
2022/06/18 13:30:20;;;;;;;3.20;1.92;;;;;;;;;;5021209;28;20201;-69
2022/06/18 13:32:45;;;;;;;3.67;2.10;;;;;;;;;;4964576;28;20045;-70
2022/06/18 13:35:20;;;;;;;2.35;1.90;;;;;;;;;;5016812;28;20044;-71
2022/06/18 13:37:54;;;;;;;1.83;1.73;;;;;;;;;;5013220;28;20460;-70
2022/06/18 13:40:34;;;;;;;4.40;2.20;;;;;;;;;;5022239;28;20440;-69
2022/06/18 13:43:06;;;;;;;1.80;1.70;;;;;;;;;;5012825;28;20104;-71
2022/06/18 13:45:39;;;;;;;2.08;1.63;;;;;;;;;;5009846;28;20029;-71
2022/06/18 13:48:31;;;;;;;2.10;1.88;;;;;;;;;;5008623;28;20115;-73
2022/06/18 13:50:57;;;;;;;1.45;1.40;;;;;;;;;;5011910;28;20131;-69
2022/06/18 13:53:31;;;;;;;1.70;1.55;;;;;;;;;;5020785;28;20067;-68
2022/06/18 13:55:59;;;;;;;1.60;1.50;;;;;;;;;;5022036;28;20064;-69
2022/06/18 13:58:27;;;;;;;2.03;1.92;;;;;;;;;;5022800;28;20029;-69
2022/06/18 14:01:04;;;;;;;1.67;1.57;;;;;;;;;;5015795;28;20029;-70
2022/06/18 14:03:30;;;;;;;2.20;1.65;;;;;;;;;;5010146;28;20040;-71
2022/06/18 14:05:55;;;;;;;3.78;1.63;;;;;;;;;;5013641;28;20467;-70
2022/06/18 14:08:26;;;;;;;1.67;1.58;;;;;;;;;;5010084;28;20033;-70
2022/06/18 14:10:52;;;;;;;2.33;2.10;;;;;;;;;;5006483;28;20053;-70
2022/06/18 14:13:21;;;;;;;2.03;1.80;;;;;;;;;;5009653;28;20077;-70
2022/06/18 14:16:12;;;;;;;2.00;1.85;;;;;;;;;;5009664;28;20039;-70
2022/06/18 14:18:38;;;;;;;2.40;2.20;;;;;;;;;;5003652;28;20133;-71
2022/06/18 14:21:05;;;;;;;1.90;1.80;;;;;;;;;;5020055;28;20124;-73
2022/06/18 14:23:37;;;;;;;2.50;2.30;;;;;;;;;;5018114;28;20433;-70
2022/06/18 14:26:18;;;;;;;3.38;1.88;;;;;;;;;;5012907;28;20029;-73
2022/06/18 14:29:03;;;;;;;2.38;1.98;;;;;;;;;;5008845;28;20049;-75
2022/06/18 14:31:58;;;;;;;2.53;2.33;;;;;;;;;;5007267;28;20044;-72
2022/06/18 14:34:43;;;;;;;2.40;2.20;;;;;;;;;;4987991;28;20460;-72
2022/06/18 14:37:10;;;;;;;2.20;2.05;;;;;;;;;;4989555;28;20053;-75
2022/06/18 14:39:42;;;;;;;2.08;1.90;;;;;;;;;;5007622;28;20049;-74
2022/06/18 14:42:30;;;;;;;2.50;1.77;;;;;;;;;;5007464;28;20022;-71
2022/06/18 14:45:14;;;;;;;2.15;2.03;;;;;;;;;;4997508;28;20049;-74
2022/06/18 14:47:53;;;;;;;4.05;2.60;;;;;;;;;;5009140;28;20373;-74
2022/06/18 14:50:21;;;;;;;2.65;2.45;;;;;;;;;;5007138;28;20072;-70
2022/06/18 14:52:54;;;;;;;2.70;1.77;;;;;;;;;;5006904;28;20467;-71
2022/06/18 14:55:26;;;;;;;2.95;2.17;;;;;;;;;;5008127;28;20445;-72
2022/06/18 14:58:14;;;;;;;2.50;2.28;;;;;;;;;;5007351;28;20113;-71
2022/06/18 15:00:59;;;;;;;4.68;2.47;;;;;;;;;;4999823;28;20076;-72
2022/06/18 15:03:25;;;;;;;2.35;2.15;;;;;;;;;;5013304;28;20026;-73
2022/06/18 15:05:57;;;;;;;2.25;2.10;;;;;;;;;;5011629;28;20036;-71
2022/06/18 15:08:23;;;;;;;3.42;2.13;;;;;;;;;;5013732;28;20103;-71
2022/06/18 15:10:49;;;;;;;2.35;2.13;;;;;;;;;;5014846;28;20018;-70
2022/06/18 15:13:15;;;;;;;2.40;2.20;;;;;;;;;;5011453;28;20030;-72